Time;durP1;ratioP1;P1;durP2;ratioP2;P2;SDS_P1;SDS_P2;PMS_P1;PMS_P2;Temp;Humidity;BMP_temperature;BMP_pressure;BME280_temperature;BME280_humidity;BME280_pressure;Samples;Min_cycle;Max_cycle;Signal;HPM_P1;HPM_P2
2022/06/08 00:01:25;;;;;;;16.00;4.25;;;;;;;;;;5137520;27;20230;-20
2022/06/08 00:03:54;;;;;;;9.90;4.32;;;;;;;;;;5140258;27;20242;-20
2022/06/08 00:06:22;;;;;;;12.85;4.50;;;;;;;;;;5156959;27;20226;-21
2022/06/08 00:08:49;;;;;;;7.65;3.78;;;;;;;;;;5148409;27;20278;-21
2022/06/08 00:11:16;;;;;;;7.07;4.28;;;;;;;;;;5156919;27;20714;-21
2022/06/08 00:13:45;;;;;;;9.43;3.95;;;;;;;;;;5157862;27;20868;-21
2022/06/08 00:16:13;;;;;;;8.45;4.10;;;;;;;;;;5159625;27;20323;-20
2022/06/08 00:18:41;;;;;;;4.97;4.05;;;;;;;;;;5158553;27;20301;-21
2022/06/08 00:21:09;;;;;;;8.38;4.07;;;;;;;;;;5152975;27;20244;-20
2022/06/08 00:23:36;;;;;;;5.10;3.95;;;;;;;;;;5153082;27;20235;-20
2022/06/08 00:26:04;;;;;;;11.02;3.83;;;;;;;;;;5152234;27;21010;-21
2022/06/08 00:28:31;;;;;;;9.18;4.13;;;;;;;;;;5160558;27;20219;-21
2022/06/08 00:31:01;;;;;;;5.63;3.75;;;;;;;;;;5152615;27;20241;-21
2022/06/08 00:33:28;;;;;;;7.82;3.80;;;;;;;;;;5164918;27;20221;-21
2022/06/08 00:35:56;;;;;;;7.40;4.13;;;;;;;;;;5154830;27;20243;-21
2022/06/08 00:38:23;;;;;;;4.57;4.18;;;;;;;;;;5152524;27;20978;-20
2022/06/08 00:40:52;;;;;;;7.15;4.00;;;;;;;;;;5152979;27;20222;-20
2022/06/08 00:43:20;;;;;;;7.22;3.97;;;;;;;;;;5153136;27;20230;-21
2022/06/08 00:45:47;;;;;;;6.25;4.18;;;;;;;;;;5146230;27;20231;-21
2022/06/08 00:48:16;;;;;;;5.63;3.90;;;;;;;;;;5136796;27;20240;-20
2022/06/08 00:50:44;;;;;;;5.70;4.03;;;;;;;;;;5138920;27;21002;-21
2022/06/08 00:53:12;;;;;;;11.75;4.43;;;;;;;;;;5153084;27;20234;-21
2022/06/08 00:55:40;;;;;;;7.88;4.07;;;;;;;;;;5153135;27;20318;-21
2022/06/08 00:58:12;;;;;;;6.00;4.10;;;;;;;;;;5152219;27;20237;-20
2022/06/08 01:00:39;;;;;;;6.85;4.18;;;;;;;;;;5150430;27;20234;-21
2022/06/08 01:03:07;;;;;;;4.97;4.07;;;;;;;;;;5151294;27;20681;-21
2022/06/08 01:05:37;;;;;;;5.07;4.22;;;;;;;;;;5151429;27;20272;-21
2022/06/08 01:08:05;;;;;;;4.53;3.90;;;;;;;;;;5151042;27;20230;-21
2022/06/08 01:10:35;;;;;;;5.72;4.00;;;;;;;;;;5154228;27;20242;-20
2022/06/08 01:13:04;;;;;;;6.05;4.00;;;;;;;;;;5151732;27;20234;-22
2022/06/08 01:15:32;;;;;;;6.40;4.20;;;;;;;;;;5148570;27;20219;-21
2022/06/08 01:17:59;;;;;;;4.63;3.70;;;;;;;;;;5138414;27;20238;-21
2022/06/08 01:20:27;;;;;;;4.65;4.25;;;;;;;;;;5152624;27;20603;-21
2022/06/08 01:22:55;;;;;;;8.18;4.03;;;;;;;;;;5167942;27;20245;-21
2022/06/08 01:25:23;;;;;;;4.28;3.88;;;;;;;;;;5172734;27;20233;-21
2022/06/08 01:27:56;;;;;;;4.20;3.80;;;;;;;;;;5173503;27;20719;-21
2022/06/08 01:30:24;;;;;;;4.50;4.10;;;;;;;;;;5173076;27;20230;-20
2022/06/08 01:33:03;;;;;;;5.55;4.32;;;;;;;;;;5173443;27;20229;-21
2022/06/08 01:35:33;;;;;;;4.93;3.97;;;;;;;;;;5172694;27;20318;-20
2022/06/08 01:38:04;;;;;;;5.15;3.88;;;;;;;;;;5173429;27;20230;-21
2022/06/08 01:40:38;;;;;;;6.68;4.13;;;;;;;;;;5173543;27;21021;-20
2022/06/08 01:43:13;;;;;;;5.82;4.72;;;;;;;;;;5173034;27;20234;-21
2022/06/08 01:45:44;;;;;;;6.38;4.15;;;;;;;;;;5167461;27;20234;-20
2022/06/08 01:48:26;;;;;;;6.32;4.10;;;;;;;;;;5170708;27;20226;-21
2022/06/08 01:50:55;;;;;;;5.70;3.80;;;;;;;;;;5173186;27;20245;-21
2022/06/08 01:53:27;;;;;;;8.00;3.97;;;;;;;;;;5173000;27;20963;-20
2022/06/08 01:55:55;;;;;;;5.47;4.03;;;;;;;;;;5172932;27;20317;-21
2022/06/08 01:58:23;;;;;;;6.20;4.05;;;;;;;;;;5172153;27;20244;-20
2022/06/08 02:00:52;;;;;;;4.65;4.20;;;;;;;;;;5172744;27;20236;-20
2022/06/08 02:03:20;;;;;;;6.70;4.40;;;;;;;;;;5172912;27;20222;-21
2022/06/08 02:05:50;;;;;;;5.00;4.10;;;;;;;;;;5172579;27;20234;-20
2022/06/08 02:08:19;;;;;;;4.57;3.80;;;;;;;;;;5172235;27;20225;-20
2022/06/08 02:10:49;;;;;;;4.78;3.92;;;;;;;;;;5173998;27;20708;-21
2022/06/08 02:13:17;;;;;;;10.00;3.88;;;;;;;;;;5176516;27;20229;-21
2022/06/08 02:15:45;;;;;;;7.35;4.32;;;;;;;;;;5175379;27;20230;-21
2022/06/08 02:18:14;;;;;;;4.95;4.03;;;;;;;;;;5165133;27;20235;-20
2022/06/08 02:20:43;;;;;;;4.85;4.13;;;;;;;;;;5173166;27;20222;-21
2022/06/08 02:23:11;;;;;;;4.63;3.90;;;;;;;;;;5175161;27;20822;-21
2022/06/08 02:25:41;;;;;;;4.95;4.40;;;;;;;;;;5176214;27;20718;-21
2022/06/08 02:28:11;;;;;;;4.60;3.47;;;;;;;;;;5175436;27;20228;-20
2022/06/08 02:30:39;;;;;;;4.75;4.00;;;;;;;;;;5171924;27;20234;-20
2022/06/08 02:35:53;;;;;;;4.63;3.83;;;;;;;;;;5185579;27;20711;-21
2022/06/08 02:38:21;;;;;;;3.90;3.60;;;;;;;;;;5176119;27;20229;-20
2022/06/08 02:40:49;;;;;;;4.25;3.80;;;;;;;;;;5173471;27;20611;-21
2022/06/08 02:43:19;;;;;;;4.50;4.10;;;;;;;;;;5173658;27;20268;-21
2022/06/08 02:45:47;;;;;;;5.22;3.78;;;;;;;;;;5170886;27;20270;-21
2022/06/08 02:48:14;;;;;;;4.75;4.13;;;;;;;;;;5176001;27;20229;-21
2022/06/08 02:50:48;;;;;;;4.32;3.90;;;;;;;;;;5175581;27;20234;-20
2022/06/08 02:53:30;;;;;;;7.93;4.10;;;;;;;;;;5164011;27;20986;-21
2022/06/08 02:55:59;;;;;;;6.38;3.97;;;;;;;;;;5174739;27;20237;-21
2022/06/08 02:58:29;;;;;;;6.97;3.85;;;;;;;;;;5175590;27;20230;-21
2022/06/08 03:00:58;;;;;;;5.03;4.20;;;;;;;;;;5175562;27;20230;-21
2022/06/08 03:03:28;;;;;;;4.53;3.92;;;;;;;;;;5174675;27;20229;-21
2022/06/08 03:05:58;;;;;;;4.85;4.13;;;;;;;;;;5175281;27;20738;-20
2022/06/08 03:08:26;;;;;;;5.63;4.13;;;;;;;;;;5175658;27;20295;-21
2022/06/08 03:10:54;;;;;;;5.32;4.10;;;;;;;;;;5175639;27;20241;-21
2022/06/08 03:13:22;;;;;;;6.53;4.72;;;;;;;;;;5175136;27;20236;-21
2022/06/08 03:15:51;;;;;;;6.22;4.65;;;;;;;;;;5174683;27;20685;-21
2022/06/08 03:18:19;;;;;;;9.05;4.47;;;;;;;;;;5175222;27;20674;-20
2022/06/08 03:20:46;;;;;;;5.22;4.30;;;;;;;;;;5175040;27;20243;-20
2022/06/08 03:23:13;;;;;;;4.95;4.43;;;;;;;;;;5174594;27;20237;-21
2022/06/08 03:25:41;;;;;;;4.15;3.80;;;;;;;;;;5174571;27;20234;-20
2022/06/08 03:28:08;;;;;;;5.07;4.63;;;;;;;;;;5161273;27;20234;-21
2022/06/08 03:30:36;;;;;;;4.93;4.25;;;;;;;;;;5170660;27;21001;-21
2022/06/08 03:33:04;;;;;;;4.75;4.20;;;;;;;;;;5166496;27;21134;-21
2022/06/08 03:35:32;;;;;;;4.60;4.07;;;;;;;;;;5174903;27;20229;-20
2022/06/08 03:37:59;;;;;;;5.97;3.85;;;;;;;;;;5174453;27;21017;-21
2022/06/08 03:40:27;;;;;;;6.32;4.28;;;;;;;;;;5175217;27;21646;-21
2022/06/08 03:42:54;;;;;;;4.68;4.28;;;;;;;;;;5175001;27;20222;-21
2022/06/08 03:45:22;;;;;;;4.75;4.30;;;;;;;;;;5173156;27;20241;-20
2022/06/08 03:47:50;;;;;;;6.00;4.43;;;;;;;;;;5182957;27;20234;-33
2022/06/08 03:50:20;;;;;;;4.82;4.38;;;;;;;;;;5163353;27;20234;-21
2022/06/08 03:52:48;;;;;;;4.60;4.20;;;;;;;;;;5176024;27;20221;-21
2022/06/08 03:55:15;;;;;;;6.68;4.60;;;;;;;;;;5174735;27;20229;-21
2022/06/08 03:57:45;;;;;;;5.03;4.53;;;;;;;;;;5174772;27;20260;-21
2022/06/08 04:00:13;;;;;;;5.45;4.72;;;;;;;;;;5173187;27;20230;-20
2022/06/08 04:02:41;;;;;;;5.00;4.38;;;;;;;;;;5171310;27;20222;-20
2022/06/08 04:05:09;;;;;;;5.35;4.85;;;;;;;;;;5174602;27;20795;-20
2022/06/08 04:07:37;;;;;;;4.35;3.95;;;;;;;;;;5174609;27;20234;-20
2022/06/08 04:10:05;;;;;;;4.80;4.40;;;;;;;;;;5174053;27;20218;-21
2022/06/08 04:12:32;;;;;;;7.38;5.05;;;;;;;;;;5174211;27;20241;-21
2022/06/08 04:15:00;;;;;;;5.35;4.80;;;;;;;;;;5160323;27;21059;-20
2022/06/08 04:17:27;;;;;;;6.15;5.10;;;;;;;;;;5166464;27;21020;-20
2022/06/08 04:19:55;;;;;;;5.55;5.03;;;;;;;;;;5174774;27;20233;-20
2022/06/08 04:22:22;;;;;;;4.78;4.30;;;;;;;;;;5173048;27;20249;-21
2022/06/08 04:24:51;;;;;;;7.10;4.90;;;;;;;;;;5174159;27;20693;-21
2022/06/08 04:27:18;;;;;;;5.28;4.78;;;;;;;;;;5173796;27;20268;-21
2022/06/08 04:29:45;;;;;;;5.82;4.80;;;;;;;;;;5174231;27;20218;-21
2022/06/08 04:32:13;;;;;;;5.93;4.80;;;;;;;;;;5173586;27;20240;-21
2022/06/08 04:34:40;;;;;;;6.93;5.40;;;;;;;;;;5173425;27;20253;-21
2022/06/08 04:37:08;;;;;;;6.13;5.50;;;;;;;;;;5173972;27;20369;-20
2022/06/08 04:39:35;;;;;;;6.60;4.88;;;;;;;;;;5174205;27;20248;-21
2022/06/08 04:42:05;;;;;;;7.63;6.00;;;;;;;;;;5174086;27;20222;-20
2022/06/08 04:44:32;;;;;;;5.95;5.38;;;;;;;;;;5173697;27;20237;-21
2022/06/08 04:47:00;;;;;;;6.03;5.43;;;;;;;;;;5171180;27;20237;-20
2022/06/08 04:49:27;;;;;;;6.30;5.70;;;;;;;;;;5173688;27;20222;-21
2022/06/08 04:51:55;;;;;;;6.07;5.47;;;;;;;;;;5174275;27;20233;-21
2022/06/08 04:54:22;;;;;;;6.85;5.75;;;;;;;;;;5173514;27;20230;-21
2022/06/08 04:56:50;;;;;;;6.38;5.75;;;;;;;;;;5174018;27;20223;-21
2022/06/08 04:59:18;;;;;;;6.38;5.25;;;;;;;;;;5174001;27;20225;-21
2022/06/08 05:01:46;;;;;;;7.82;5.45;;;;;;;;;;5173448;27;20218;-21
2022/06/08 05:04:13;;;;;;;7.63;5.10;;;;;;;;;;5173037;27;20259;-21
2022/06/08 05:06:41;;;;;;;10.55;5.05;;;;;;;;;;5173653;27;20233;-21
2022/06/08 05:09:08;;;;;;;10.02;5.05;;;;;;;;;;5173722;27;20229;-21
2022/06/08 05:11:35;;;;;;;7.38;5.18;;;;;;;;;;5173750;27;20234;-20
2022/06/08 05:14:03;;;;;;;7.20;4.95;;;;;;;;;;5173541;27;20657;-20
2022/06/08 05:16:32;;;;;;;8.73;5.47;;;;;;;;;;5172693;27;20226;-20
2022/06/08 05:18:59;;;;;;;8.77;5.80;;;;;;;;;;5173790;27;20657;-21
2022/06/08 05:21:26;;;;;;;8.93;5.65;;;;;;;;;;5173406;27;20248;-21
2022/06/08 05:23:54;;;;;;;6.47;5.30;;;;;;;;;;5173072;27;20244;-21
2022/06/08 05:26:21;;;;;;;6.32;5.53;;;;;;;;;;5172679;27;20241;-20
2022/06/08 05:28:49;;;;;;;6.80;5.50;;;;;;;;;;5173193;27;20229;-21
2022/06/08 05:31:16;;;;;;;6.07;5.47;;;;;;;;;;5173191;27;20237;-20
2022/06/08 05:33:45;;;;;;;6.00;5.35;;;;;;;;;;5158629;27;20252;-21
2022/06/08 05:36:16;;;;;;;6.65;6.05;;;;;;;;;;5173312;27;20693;-20
2022/06/08 05:38:43;;;;;;;6.75;6.15;;;;;;;;;;5172481;27;20768;-20
2022/06/08 05:41:11;;;;;;;7.35;6.00;;;;;;;;;;5173292;27;20350;-21
2022/06/08 05:43:38;;;;;;;6.63;6.00;;;;;;;;;;5173224;27;20234;-21
2022/06/08 05:46:05;;;;;;;11.98;6.35;;;;;;;;;;5161193;27;20257;-21
2022/06/08 05:48:33;;;;;;;7.03;5.88;;;;;;;;;;5172480;27;20309;-21
2022/06/08 05:51:02;;;;;;;5.85;5.35;;;;;;;;;;5173138;27;20222;-21
2022/06/08 05:53:29;;;;;;;6.22;5.63;;;;;;;;;;5173013;27;20229;-21
2022/06/08 05:55:56;;;;;;;7.93;5.40;;;;;;;;;;5172982;27;20536;-20
2022/06/08 05:58:24;;;;;;;6.65;5.82;;;;;;;;;;5173031;27;20238;-21
2022/06/08 06:00:51;;;;;;;8.75;5.70;;;;;;;;;;5167192;27;20756;-20
2022/06/08 06:03:19;;;;;;;7.88;5.60;;;;;;;;;;5173230;27;20232;-20
2022/06/08 06:05:46;;;;;;;5.63;5.13;;;;;;;;;;5173023;27;20233;-21
2022/06/08 06:08:15;;;;;;;11.50;5.70;;;;;;;;;;5158488;27;20230;-20
2022/06/08 06:10:43;;;;;;;6.97;5.50;;;;;;;;;;5171999;27;20236;-21
2022/06/08 06:13:11;;;;;;;6.22;5.40;;;;;;;;;;5172433;27;20233;-21
2022/06/08 06:15:38;;;;;;;6.18;5.22;;;;;;;;;;5172682;27;20226;-21
2022/06/08 06:18:06;;;;;;;5.60;4.95;;;;;;;;;;5172484;27;20283;-20
2022/06/08 06:20:34;;;;;;;7.93;5.05;;;;;;;;;;5172787;27;20230;-20
2022/06/08 06:23:01;;;;;;;5.53;4.80;;;;;;;;;;5171194;27;20720;-20
2022/06/08 06:25:30;;;;;;;7.20;4.88;;;;;;;;;;5173217;27;20244;-21
2022/06/08 06:27:57;;;;;;;6.85;4.60;;;;;;;;;;5172192;27;20230;-21
2022/06/08 06:30:25;;;;;;;5.88;4.70;;;;;;;;;;5172572;27;20226;-21
2022/06/08 06:32:52;;;;;;;5.28;4.78;;;;;;;;;;5170517;27;20226;-21
2022/06/08 06:35:21;;;;;;;5.38;4.88;;;;;;;;;;5168424;27;20957;-21
2022/06/08 06:37:49;;;;;;;8.07;4.38;;;;;;;;;;5171523;27;20234;-20
2022/06/08 06:40:16;;;;;;;5.78;4.10;;;;;;;;;;5169071;27;20233;-20
2022/06/08 06:42:45;;;;;;;7.57;4.82;;;;;;;;;;5171992;27;20713;-20
2022/06/08 06:45:12;;;;;;;6.22;4.78;;;;;;;;;;5171814;27;20229;-21
2022/06/08 06:47:40;;;;;;;5.75;4.07;;;;;;;;;;5171860;27;20245;-21
2022/06/08 06:50:08;;;;;;;5.13;4.28;;;;;;;;;;5171781;27;21043;-20
2022/06/08 06:52:35;;;;;;;4.70;4.20;;;;;;;;;;5171902;27;20231;-20
2022/06/08 06:55:03;;;;;;;4.60;4.20;;;;;;;;;;5171653;27;20716;-21
2022/06/08 06:57:30;;;;;;;6.57;4.47;;;;;;;;;;5174127;27;20234;-21
2022/06/08 06:59:59;;;;;;;6.80;4.40;;;;;;;;;;5175621;27;20229;-21
2022/06/08 07:02:26;;;;;;;4.95;4.55;;;;;;;;;;5174549;27;20233;-20
2022/06/08 07:04:54;;;;;;;7.75;4.60;;;;;;;;;;5168573;27;20240;-21
2022/06/08 07:07:21;;;;;;;4.97;4.35;;;;;;;;;;5168779;27;20240;-20
2022/06/08 07:09:48;;;;;;;4.60;4.20;;;;;;;;;;5174130;27;20241;-21
2022/06/08 07:12:16;;;;;;;4.88;4.30;;;;;;;;;;5170631;27;20229;-20
2022/06/08 07:14:43;;;;;;;5.72;4.35;;;;;;;;;;5169418;27;20222;-20
2022/06/08 07:17:12;;;;;;;4.70;4.20;;;;;;;;;;5170100;27;20230;-21
2022/06/08 07:19:39;;;;;;;4.20;3.80;;;;;;;;;;5172153;27;20620;-20
2022/06/08 07:22:07;;;;;;;7.57;4.47;;;;;;;;;;5166500;27;20238;-21
2022/06/08 07:24:34;;;;;;;7.45;4.20;;;;;;;;;;5169280;27;20230;-21
2022/06/08 07:27:02;;;;;;;4.32;3.92;;;;;;;;;;5172099;27;20222;-21
2022/06/08 07:29:29;;;;;;;5.15;3.92;;;;;;;;;;5169362;27;21057;-21
2022/06/08 07:31:57;;;;;;;4.00;3.53;;;;;;;;;;5174325;27;20232;-21
2022/06/08 07:34:26;;;;;;;5.07;4.13;;;;;;;;;;5173576;27;20268;-21
2022/06/08 07:36:53;;;;;;;6.35;4.43;;;;;;;;;;5174211;27;20234;-21
2022/06/08 07:39:21;;;;;;;7.57;4.00;;;;;;;;;;5170764;27;20688;-20
2022/06/08 07:41:49;;;;;;;7.38;4.05;;;;;;;;;;5173040;27;20218;-21
2022/06/08 07:44:17;;;;;;;6.63;3.70;;;;;;;;;;5174596;27;20720;-20
2022/06/08 07:46:44;;;;;;;7.70;4.00;;;;;;;;;;5175067;27;20233;-20
2022/06/08 07:51:58;;;;;;;14.88;5.28;;;;;;;;;;5163837;27;20222;-20
2022/06/08 07:54:26;;;;;;;12.70;5.05;;;;;;;;;;5167273;27;20219;-20
2022/06/08 07:56:53;;;;;;;20.23;4.93;;;;;;;;;;5166972;27;20243;-20
2022/06/08 07:59:22;;;;;;;16.13;5.40;;;;;;;;;;5171518;27;20279;-20
2022/06/08 08:01:49;;;;;;;8.38;5.00;;;;;;;;;;5172503;27;20688;-19
2022/06/08 08:04:16;;;;;;;9.45;5.20;;;;;;;;;;5174090;27;20271;-19
2022/06/08 08:06:44;;;;;;;11.98;5.20;;;;;;;;;;5174480;27;20226;-19
2022/06/08 08:09:17;;;;;;;13.38;5.40;;;;;;;;;;5172406;27;20234;-20
2022/06/08 08:11:45;;;;;;;9.30;4.95;;;;;;;;;;5169394;27;20334;-19
2022/06/08 08:14:12;;;;;;;8.57;5.22;;;;;;;;;;5169168;27;20687;-20
2022/06/08 08:16:39;;;;;;;5.60;4.47;;;;;;;;;;5172323;27;20234;-20
2022/06/08 08:19:07;;;;;;;7.90;4.80;;;;;;;;;;5173808;27;20226;-20
2022/06/08 08:21:34;;;;;;;5.53;4.68;;;;;;;;;;5170225;27;20238;-19
2022/06/08 08:24:02;;;;;;;10.05;4.63;;;;;;;;;;5172414;27;20238;-20
2022/06/08 08:26:31;;;;;;;10.77;4.20;;;;;;;;;;5173649;27;20226;-20
2022/06/08 08:28:58;;;;;;;11.15;4.18;;;;;;;;;;5168636;27;20237;-21
2022/06/08 08:31:25;;;;;;;7.38;4.20;;;;;;;;;;5173601;27;20244;-20
2022/06/08 08:33:53;;;;;;;4.95;3.88;;;;;;;;;;5172698;27;20222;-20
2022/06/08 08:36:20;;;;;;;11.82;4.03;;;;;;;;;;5172334;27;20264;-20
2022/06/08 08:38:48;;;;;;;10.20;4.03;;;;;;;;;;5170895;27;20231;-20
2022/06/08 08:44:03;;;;;;;4.57;3.60;;;;;;;;;;5172174;27;20230;-20
2022/06/08 08:46:34;;;;;;;6.88;4.28;;;;;;;;;;5169581;27;20275;-19
2022/06/08 08:49:04;;;;;;;10.00;3.72;;;;;;;;;;5164441;27;20274;-20
2022/06/08 08:51:33;;;;;;;6.53;3.60;;;;;;;;;;5167743;27;20230;-19
2022/06/08 08:54:05;;;;;;;3.78;3.33;;;;;;;;;;5168049;27;20230;-20
2022/06/08 08:56:35;;;;;;;6.38;2.80;;;;;;;;;;5177979;27;20241;-19
2022/06/08 08:59:04;;;;;;;8.23;3.30;;;;;;;;;;5172693;27;20420;-19
2022/06/08 09:01:32;;;;;;;12.23;3.22;;;;;;;;;;5167559;27;20218;-20
2022/06/08 09:04:00;;;;;;;15.48;3.17;;;;;;;;;;5173830;27;21066;-20
2022/06/08 09:06:28;;;;;;;5.00;2.63;;;;;;;;;;5172239;27;20300;-20
2022/06/08 09:09:00;;;;;;;7.57;3.10;;;;;;;;;;5170209;27;20237;-19
2022/06/08 09:11:29;;;;;;;7.43;2.55;;;;;;;;;;5172201;27;20420;-20
2022/06/08 09:13:57;;;;;;;8.93;3.63;;;;;;;;;;5172245;27;20234;-20
2022/06/08 09:16:27;;;;;;;12.82;3.17;;;;;;;;;;5172286;27;20901;-20
2022/06/08 09:18:54;;;;;;;8.45;2.40;;;;;;;;;;5169750;27;20226;-20
2022/06/08 09:21:26;;;;;;;8.50;2.95;;;;;;;;;;5172736;27;20230;-20
2022/06/08 09:23:54;;;;;;;10.07;2.80;;;;;;;;;;5169972;27;20260;-20
2022/06/08 09:26:29;;;;;;;8.38;2.42;;;;;;;;;;5172302;27;20248;-19
2022/06/08 09:28:57;;;;;;;7.53;2.03;;;;;;;;;;5169138;27;20695;-20
2022/06/08 09:31:25;;;;;;;8.00;2.67;;;;;;;;;;5170372;27;20411;-20
2022/06/08 09:34:04;;;;;;;6.15;2.20;;;;;;;;;;5173964;27;20283;-19
2022/06/08 09:36:31;;;;;;;7.15;2.45;;;;;;;;;;5173104;27;20840;-20
2022/06/08 09:38:59;;;;;;;4.38;2.00;;;;;;;;;;5173471;27;20237;-20
2022/06/08 09:41:27;;;;;;;8.77;2.00;;;;;;;;;;5172928;27;20238;-21
2022/06/08 09:44:08;;;;;;;7.45;1.90;;;;;;;;;;5173928;27;20274;-19
2022/06/08 09:52:21;;;;;;;5.07;2.00;;;;;;;;;;5172289;27;20233;-19
2022/06/08 09:54:51;;;;;;;6.35;2.13;;;;;;;;;;5173088;27;20222;-20
2022/06/08 09:57:24;;;;;;;5.22;1.77;;;;;;;;;;5173005;27;21144;-20
2022/06/08 09:59:55;;;;;;;5.22;2.10;;;;;;;;;;5172665;27;20230;-20
2022/06/08 10:02:25;;;;;;;3.30;1.67;;;;;;;;;;5174024;27;20232;-20
2022/06/08 10:05:03;;;;;;;8.85;2.20;;;;;;;;;;5181778;27;20233;-20
2022/06/08 10:07:34;;;;;;;4.75;2.10;;;;;;;;;;5171795;27;20640;-19
2022/06/08 10:10:09;;;;;;;2.88;2.20;;;;;;;;;;5170283;27;20232;-20
2022/06/08 10:12:38;;;;;;;8.05;2.20;;;;;;;;;;5170259;27;20229;-19
2022/06/08 10:15:08;;;;;;;3.65;1.70;;;;;;;;;;5172268;27;20221;-20
2022/06/08 10:17:37;;;;;;;7.35;2.10;;;;;;;;;;5170237;27;20237;-20
2022/06/08 10:20:07;;;;;;;3.50;1.98;;;;;;;;;;5172910;27;20230;-20
2022/06/08 10:22:35;;;;;;;5.63;1.90;;;;;;;;;;5171847;27;20230;-20
2022/06/08 10:25:04;;;;;;;4.13;1.65;;;;;;;;;;5172592;27;20711;-20
2022/06/08 10:27:33;;;;;;;4.97;1.85;;;;;;;;;;5173202;27;20328;-20
2022/06/08 10:30:06;;;;;;;4.25;2.00;;;;;;;;;;5172451;27;20229;-19
2022/06/08 10:32:35;;;;;;;6.35;1.95;;;;;;;;;;5174656;27;20241;-19
2022/06/08 10:35:13;;;;;;;4.13;1.90;;;;;;;;;;5175437;27;20226;-20
2022/06/08 10:37:41;;;;;;;6.65;1.88;;;;;;;;;;5162316;27;20218;-20
2022/06/08 10:40:08;;;;;;;3.90;2.03;;;;;;;;;;5172207;27;20230;-20
2022/06/08 10:42:40;;;;;;;6.10;2.10;;;;;;;;;;5170056;27;20233;-20
2022/06/08 10:45:27;;;;;;;4.78;1.98;;;;;;;;;;5162718;27;20301;-20
2022/06/08 10:47:55;;;;;;;4.40;1.83;;;;;;;;;;5167430;27;20230;-21
2022/06/08 10:50:28;;;;;;;12.77;1.98;;;;;;;;;;5163988;27;20233;-20
2022/06/08 10:54:52;;;;;;;4.97;1.70;;;;;;;;;;5164645;27;20230;-21
2022/06/08 10:55:42;;;;;;;4.65;1.80;;;;;;;;;;5166902;27;20236;-21
2022/06/08 10:58:11;;;;;;;4.75;1.77;;;;;;;;;;5165145;27;20978;-21
2022/06/08 11:00:58;;;;;;;5.75;2.05;;;;;;;;;;5164142;27;20230;-21
2022/06/08 11:03:34;;;;;;;36.55;2.58;;;;;;;;;;5166636;27;20324;-21
2022/06/08 11:06:03;;;;;;;10.38;2.78;;;;;;;;;;5168980;27;20230;-17
2022/06/08 11:08:46;;;;;;;13.25;2.25;;;;;;;;;;5168144;27;21142;-18
2022/06/08 11:11:13;;;;;;;6.47;1.70;;;;;;;;;;5166360;27;20707;-18
2022/06/08 11:13:50;;;;;;;4.90;1.85;;;;;;;;;;5168183;27;20412;-17
2022/06/08 11:16:19;;;;;;;5.05;2.13;;;;;;;;;;5164430;27;20296;-19
2022/06/08 11:18:48;;;;;;;6.35;1.88;;;;;;;;;;5161131;27;20252;-19
2022/06/08 11:21:36;;;;;;;9.27;1.90;;;;;;;;;;5158335;27;20229;-19
2022/06/08 11:24:05;;;;;;;11.02;2.40;;;;;;;;;;5161110;27;20970;-19
2022/06/08 11:26:47;;;;;;;7.00;1.80;;;;;;;;;;5160112;27;20246;-19
2022/06/08 11:29:33;;;;;;;9.32;1.85;;;;;;;;;;5164456;27;20315;-20
2022/06/08 11:32:00;;;;;;;9.30;2.28;;;;;;;;;;5164533;27;20433;-19
2022/06/08 11:34:49;;;;;;;8.07;2.65;;;;;;;;;;5166636;27;20234;-19
2022/06/08 11:37:23;;;;;;;8.88;2.58;;;;;;;;;;5158065;27;20230;-20
2022/06/08 11:39:52;;;;;;;7.80;2.72;;;;;;;;;;5160462;27;22067;-20
2022/06/08 11:42:24;;;;;;;8.57;2.40;;;;;;;;;;5157603;27;20235;-20
2022/06/08 11:44:52;;;;;;;10.38;2.30;;;;;;;;;;5164259;27;20223;-19
2022/06/08 11:47:21;;;;;;;10.00;2.53;;;;;;;;;;5163936;27;20234;-19
2022/06/08 11:49:55;;;;;;;7.72;2.55;;;;;;;;;;5160880;27;20236;-19
2022/06/08 11:52:31;;;;;;;10.00;3.13;;;;;;;;;;5166788;27;20233;-19
2022/06/08 11:55:01;;;;;;;10.68;2.40;;;;;;;;;;5164853;27;20229;-19
2022/06/08 11:57:29;;;;;;;7.80;3.20;;;;;;;;;;5159764;27;20226;-20
2022/06/08 11:59:56;;;;;;;6.68;2.35;;;;;;;;;;5156874;27;20234;-20
2022/06/08 12:02:24;;;;;;;11.45;2.45;;;;;;;;;;5162750;27;21077;-18
2022/06/08 12:04:52;;;;;;;4.50;2.15;;;;;;;;;;5156881;27;20222;-19
2022/06/08 12:07:43;;;;;;;6.88;2.22;;;;;;;;;;5163064;27;20379;-18
2022/06/08 12:10:11;;;;;;;8.10;2.75;;;;;;;;;;5160807;27;20238;-19
2022/06/08 12:12:39;;;;;;;4.50;2.53;;;;;;;;;;5157826;27;20222;-19
2022/06/08 12:15:25;;;;;;;7.88;2.45;;;;;;;;;;5158369;27;20244;-19
2022/06/08 12:17:52;;;;;;;11.45;3.03;;;;;;;;;;5159606;27;20222;-20
2022/06/08 12:20:23;;;;;;;6.97;2.20;;;;;;;;;;5156466;27;20244;-19
2022/06/08 12:22:53;;;;;;;7.10;2.65;;;;;;;;;;5158844;27;20579;-19
2022/06/08 12:25:22;;;;;;;9.13;2.05;;;;;;;;;;5159996;27;20235;-20
2022/06/08 12:27:53;;;;;;;8.77;2.40;;;;;;;;;;5152747;27;20782;-20
2022/06/08 12:30:20;;;;;;;6.97;2.38;;;;;;;;;;5162270;27;20245;-20
2022/06/08 12:32:52;;;;;;;7.97;2.50;;;;;;;;;;5154586;27;20628;-19
2022/06/08 12:35:22;;;;;;;6.05;2.53;;;;;;;;;;5160796;27;20288;-19
2022/06/08 12:37:49;;;;;;;10.52;2.28;;;;;;;;;;5159157;27;20238;-20
2022/06/08 12:40:29;;;;;;;9.95;2.30;;;;;;;;;;5159813;27;20455;-19
2022/06/08 12:42:59;;;;;;;9.85;1.95;;;;;;;;;;5159356;27;20230;-19
2022/06/08 12:45:27;;;;;;;6.38;2.30;;;;;;;;;;5164991;27;20230;-21
2022/06/08 12:47:55;;;;;;;7.03;2.20;;;;;;;;;;5154418;27;20711;-19
2022/06/08 12:50:23;;;;;;;10.05;2.50;;;;;;;;;;5158787;27;20709;-19
2022/06/08 12:52:50;;;;;;;4.90;2.45;;;;;;;;;;5150772;27;20229;-19
2022/06/08 12:55:19;;;;;;;8.48;2.28;;;;;;;;;;5157868;27;20234;-19
2022/06/08 12:57:48;;;;;;;8.02;2.10;;;;;;;;;;5160611;27;20240;-19
2022/06/08 13:00:16;;;;;;;10.38;2.10;;;;;;;;;;5157846;27;20233;-19
2022/06/08 13:02:44;;;;;;;8.65;2.35;;;;;;;;;;5156219;27;20234;-19
2022/06/08 13:05:16;;;;;;;6.93;2.30;;;;;;;;;;5159620;27;21071;-19
2022/06/08 13:07:44;;;;;;;10.35;2.38;;;;;;;;;;5159545;27;20230;-18
2022/06/08 13:10:11;;;;;;;11.23;2.35;;;;;;;;;;5159510;27;20230;-19
2022/06/08 13:12:40;;;;;;;5.55;1.90;;;;;;;;;;5164910;27;21007;-19
2022/06/08 13:15:14;;;;;;;4.13;1.70;;;;;;;;;;5153785;27;20230;-20
2022/06/08 13:17:42;;;;;;;7.45;1.90;;;;;;;;;;5156171;27;20234;-19
2022/06/08 13:20:14;;;;;;;5.55;1.92;;;;;;;;;;5164345;27;20704;-19
2022/06/08 13:22:41;;;;;;;5.38;2.25;;;;;;;;;;5161608;27;20709;-19
2022/06/08 13:25:09;;;;;;;4.65;2.15;;;;;;;;;;5163438;27;20283;-19
2022/06/08 13:27:37;;;;;;;7.97;1.83;;;;;;;;;;5160476;27;20226;-19
2022/06/08 13:30:06;;;;;;;5.15;1.80;;;;;;;;;;5162717;27;20233;-19
2022/06/08 13:32:34;;;;;;;4.65;1.60;;;;;;;;;;5163547;27;21001;-18
2022/06/08 13:35:02;;;;;;;3.55;1.85;;;;;;;;;;5161746;27;20401;-18
2022/06/08 13:37:33;;;;;;;4.75;1.90;;;;;;;;;;5163835;27;20222;-19
2022/06/08 13:40:00;;;;;;;6.43;1.63;;;;;;;;;;5158810;27;20228;-20
2022/06/08 13:42:28;;;;;;;4.75;1.73;;;;;;;;;;5155525;27;20234;-19
2022/06/08 13:44:56;;;;;;;4.95;1.90;;;;;;;;;;5161155;27;22004;-19
2022/06/08 13:47:24;;;;;;;3.03;1.75;;;;;;;;;;5160526;27;20705;-18
2022/06/08 13:49:55;;;;;;;6.78;2.05;;;;;;;;;;5161880;27;20909;-19
2022/06/08 13:52:24;;;;;;;3.08;1.85;;;;;;;;;;5167019;27;20230;-20
2022/06/08 13:54:53;;;;;;;3.95;1.50;;;;;;;;;;5163588;27;20226;-19
2022/06/08 13:57:20;;;;;;;3.58;1.35;;;;;;;;;;5163192;27;20233;-20
2022/06/08 13:59:48;;;;;;;5.65;1.30;;;;;;;;;;5161977;27;20722;-19
2022/06/08 14:02:17;;;;;;;4.05;1.50;;;;;;;;;;5160850;27;20700;-19
2022/06/08 14:04:44;;;;;;;5.45;2.00;;;;;;;;;;5163328;27;21098;-19
2022/06/08 14:13:02;;;;;;;4.35;1.77;;;;;;;;;;5161221;27;20456;-18
2022/06/08 14:15:29;;;;;;;4.18;1.50;;;;;;;;;;5163493;27;20241;-18
2022/06/08 14:17:56;;;;;;;1.92;1.17;;;;;;;;;;5160646;27;21036;-18
2022/06/08 14:20:29;;;;;;;8.95;1.95;;;;;;;;;;5161657;27;20256;-19
2022/06/08 14:22:58;;;;;;;2.40;1.23;;;;;;;;;;5161983;27;20242;-18
2022/06/08 14:25:26;;;;;;;5.70;1.40;;;;;;;;;;5165703;27;20241;-18
2022/06/08 14:27:53;;;;;;;5.22;1.70;;;;;;;;;;5165296;27;20229;-18
2022/06/08 14:30:21;;;;;;;3.55;1.10;;;;;;;;;;5164763;27;20235;-18
2022/06/08 14:32:49;;;;;;;4.28;1.48;;;;;;;;;;5166652;27;20249;-18
2022/06/08 14:35:19;;;;;;;2.90;1.10;;;;;;;;;;5154914;27;20386;-20
2022/06/08 14:38:10;;;;;;;2.53;1.20;;;;;;;;;;5164204;27;20727;-18
2022/06/08 14:40:38;;;;;;;1.58;1.10;;;;;;;;;;5158900;27;21040;-18
2022/06/08 14:43:06;;;;;;;3.17;1.40;;;;;;;;;;5164712;27;20631;-18
2022/06/08 14:45:33;;;;;;;1.73;1.02;;;;;;;;;;5164081;27;20230;-16
2022/06/08 14:48:01;;;;;;;2.25;1.50;;;;;;;;;;5163267;27;20231;-18
2022/06/08 14:50:30;;;;;;;2.47;1.20;;;;;;;;;;5162093;27;20231;-19
2022/06/08 14:52:58;;;;;;;5.15;1.45;;;;;;;;;;5162109;27;20875;-18
2022/06/08 14:58:14;;;;;;;1.75;0.82;;;;;;;;;;5163698;27;20338;-18
2022/06/08 15:00:41;;;;;;;2.88;1.27;;;;;;;;;;5161026;27;20231;-18
2022/06/08 15:03:10;;;;;;;3.97;1.10;;;;;;;;;;5157878;27;20234;-18
2022/06/08 15:05:38;;;;;;;4.85;1.20;;;;;;;;;;5166957;27;20238;-18
2022/06/08 15:08:06;;;;;;;8.80;1.10;;;;;;;;;;5157284;27;20226;-18
2022/06/08 15:11:57;;;;;;;5.03;1.05;;;;;;;;;;5161987;27;20704;-19
2022/06/08 15:13:22;;;;;;;4.30;1.27;;;;;;;;;;5160702;27;20239;-19
2022/06/08 15:15:49;;;;;;;3.53;1.08;;;;;;;;;;5158420;27;20956;-18